Time;durP1;ratioP1;P1;durP2;ratioP2;P2;SDS_P1;SDS_P2;PMS_P1;PMS_P2;Temp;Humidity;BMP_temperature;BMP_pressure;BME280_temperature;BME280_humidity;BME280_pressure;Samples;Min_cycle;Max_cycle;Signal;HPM_P1;HPM_P2
2023/10/04 00:01:44;;;;;;;3.50;1.63;;;;;;;;;;5073975;28;20441;-75
2023/10/04 00:04:13;;;;;;;4.00;2.00;;;;;;;;;;5073309;28;20490;-75
2023/10/04 00:06:41;;;;;;;4.10;1.97;;;;;;;;;;5073825;28;20783;-75
2023/10/04 00:09:09;;;;;;;5.73;1.60;;;;;;;;;;5073768;28;20432;-75
2023/10/04 00:11:37;;;;;;;6.57;1.53;;;;;;;;;;5073587;28;20807;-75
2023/10/04 00:14:04;;;;;;;3.50;1.30;;;;;;;;;;5073364;28;20976;-75
2023/10/04 00:16:34;;;;;;;3.80;1.80;;;;;;;;;;5073659;28;20445;-75
2023/10/04 00:19:01;;;;;;;3.70;1.77;;;;;;;;;;5073717;28;20437;-75
2023/10/04 00:21:30;;;;;;;3.50;1.70;;;;;;;;;;5073753;28;20468;-75
2023/10/04 00:23:58;;;;;;;3.40;1.70;;;;;;;;;;5073107;28;20432;-75
2023/10/04 00:26:26;;;;;;;3.40;1.80;;;;;;;;;;5073578;28;20471;-74
2023/10/04 00:28:53;;;;;;;5.83;1.93;;;;;;;;;;5073536;28;20440;-75
2023/10/04 00:31:20;;;;;;;4.00;2.27;;;;;;;;;;5073160;28;20868;-75
2023/10/04 00:33:49;;;;;;;3.23;1.80;;;;;;;;;;5073178;28;20459;-75
2023/10/04 00:36:21;;;;;;;4.20;1.80;;;;;;;;;;5072768;28;20437;-75
2023/10/04 00:38:50;;;;;;;3.10;1.63;;;;;;;;;;5073523;28;20523;-75
2023/10/04 00:41:19;;;;;;;3.63;1.87;;;;;;;;;;5073328;28;20432;-75
2023/10/04 00:43:51;;;;;;;4.63;2.17;;;;;;;;;;5073091;28;20436;-75
2023/10/04 00:46:19;;;;;;;3.57;1.50;;;;;;;;;;5072978;28;20436;-74
2023/10/04 00:48:49;;;;;;;3.67;1.97;;;;;;;;;;5073258;28;20432;-75
2023/10/04 00:51:18;;;;;;;4.57;1.83;;;;;;;;;;5073099;28;20472;-75
2023/10/04 00:53:47;;;;;;;3.03;1.63;;;;;;;;;;5072821;28;20444;-75
2023/10/04 00:56:16;;;;;;;9.80;2.13;;;;;;;;;;5072686;28;20439;-75
2023/10/04 00:58:45;;;;;;;3.20;1.67;;;;;;;;;;5072799;28;20459;-75
2023/10/04 01:01:14;;;;;;;2.60;1.50;;;;;;;;;;5073007;28;20444;-75
2023/10/04 01:03:41;;;;;;;3.43;1.60;;;;;;;;;;5074379;28;20514;-75
2023/10/04 01:06:09;;;;;;;4.90;2.10;;;;;;;;;;5076808;28;20865;-74
2023/10/04 01:08:35;;;;;;;5.50;2.53;;;;;;;;;;5076700;28;20514;-75
2023/10/04 01:11:05;;;;;;;5.50;2.00;;;;;;;;;;5076879;28;20463;-75
2023/10/04 01:13:40;;;;;;;3.67;1.63;;;;;;;;;;5075961;28;20514;-75
2023/10/04 01:16:09;;;;;;;4.60;2.73;;;;;;;;;;5076854;28;20519;-75
2023/10/04 01:18:36;;;;;;;3.70;1.90;;;;;;;;;;5076510;28;20444;-75
2023/10/04 01:21:05;;;;;;;3.73;1.90;;;;;;;;;;5076688;28;20447;-75
2023/10/04 01:23:34;;;;;;;6.17;2.07;;;;;;;;;;5076675;28;20442;-75
2023/10/04 01:26:01;;;;;;;4.60;1.63;;;;;;;;;;5076412;28;20834;-75
2023/10/04 01:28:30;;;;;;;5.50;2.37;;;;;;;;;;5075912;28;20494;-75
2023/10/04 01:30:59;;;;;;;4.70;1.73;;;;;;;;;;5076504;28;20472;-75
2023/10/04 01:33:28;;;;;;;3.70;1.83;;;;;;;;;;5076531;28;20792;-75
2023/10/04 01:35:56;;;;;;;6.23;2.40;;;;;;;;;;5076276;28;20440;-75
2023/10/04 01:38:25;;;;;;;3.87;2.20;;;;;;;;;;5076510;28;20468;-75
2023/10/04 01:40:54;;;;;;;4.60;1.87;;;;;;;;;;5075607;28;20444;-75
2023/10/04 01:43:24;;;;;;;3.70;1.80;;;;;;;;;;5076380;28;20463;-75
2023/10/04 01:45:52;;;;;;;4.53;2.40;;;;;;;;;;5076470;28;20800;-75
2023/10/04 01:48:20;;;;;;;4.10;2.10;;;;;;;;;;5076312;28;20498;-74
2023/10/04 01:50:48;;;;;;;4.27;1.70;;;;;;;;;;5076244;28;20485;-74
2023/10/04 01:53:16;;;;;;;5.13;2.30;;;;;;;;;;5075905;28;20476;-75
2023/10/04 01:55:43;;;;;;;5.87;2.33;;;;;;;;;;5075806;28;20436;-75
2023/10/04 01:58:15;;;;;;;4.83;1.90;;;;;;;;;;5075773;28;20437;-75
2023/10/04 02:00:42;;;;;;;3.30;2.00;;;;;;;;;;5076230;28;20481;-75
2023/10/04 02:03:10;;;;;;;3.83;2.33;;;;;;;;;;5075485;28;20922;-74
2023/10/04 02:05:40;;;;;;;3.40;1.60;;;;;;;;;;5074958;28;20507;-75
2023/10/04 02:08:08;;;;;;;5.40;1.77;;;;;;;;;;5074993;28;20447;-75
2023/10/04 02:10:36;;;;;;;3.00;1.50;;;;;;;;;;5075129;28;20930;-74
2023/10/04 02:13:06;;;;;;;4.87;2.50;;;;;;;;;;5074973;28;20586;-75
2023/10/04 02:15:35;;;;;;;4.70;2.40;;;;;;;;;;5074568;28;20435;-75
2023/10/04 02:18:03;;;;;;;3.57;1.80;;;;;;;;;;5075907;28;20482;-75
2023/10/04 02:20:34;;;;;;;6.53;1.90;;;;;;;;;;5075708;28;20448;-75
2023/10/04 02:23:04;;;;;;;4.07;2.07;;;;;;;;;;5075559;28;20523;-75
2023/10/04 02:25:31;;;;;;;5.00;1.87;;;;;;;;;;5075605;28;20486;-75
2023/10/04 02:28:02;;;;;;;4.20;2.50;;;;;;;;;;5075910;28;20447;-75
2023/10/04 02:30:30;;;;;;;3.83;1.80;;;;;;;;;;5074872;28;20433;-74
2023/10/04 02:33:00;;;;;;;3.53;1.57;;;;;;;;;;5074354;28;20521;-75
2023/10/04 02:35:29;;;;;;;4.03;1.80;;;;;;;;;;5075332;28;20521;-75
2023/10/04 02:37:59;;;;;;;4.33;2.70;;;;;;;;;;5075600;28;20529;-75
2023/10/04 02:40:28;;;;;;;4.07;1.30;;;;;;;;;;5074964;28;20417;-74
2023/10/04 02:42:55;;;;;;;6.53;2.50;;;;;;;;;;5075214;28;20198;-74
2023/10/04 02:45:24;;;;;;;5.70;3.17;;;;;;;;;;5074671;28;20930;-75
2023/10/04 02:47:52;;;;;;;4.30;2.30;;;;;;;;;;5075238;28;20437;-75
2023/10/04 02:50:22;;;;;;;6.00;2.30;;;;;;;;;;5074973;28;20513;-75
2023/10/04 02:52:51;;;;;;;4.10;2.40;;;;;;;;;;5074809;28;20613;-74
2023/10/04 02:55:19;;;;;;;3.42;1.80;;;;;;;;;;5074233;28;20183;-74
2023/10/04 02:57:50;;;;;;;4.20;2.35;;;;;;;;;;5074889;28;20194;-75
2023/10/04 03:00:19;;;;;;;5.10;2.10;;;;;;;;;;5074748;28;20183;-75
2023/10/04 03:02:47;;;;;;;4.05;1.90;;;;;;;;;;5074605;28;20472;-75
2023/10/04 03:05:18;;;;;;;4.83;2.40;;;;;;;;;;5074582;28;20233;-75
2023/10/04 03:07:49;;;;;;;4.20;2.25;;;;;;;;;;5074734;28;20512;-75
2023/10/04 03:10:23;;;;;;;4.90;2.10;;;;;;;;;;5074989;28;20570;-75
2023/10/04 03:12:52;;;;;;;3.33;1.80;;;;;;;;;;5073901;28;20461;-75
2023/10/04 03:15:21;;;;;;;4.63;2.40;;;;;;;;;;5074705;28;20457;-74
2023/10/04 03:17:50;;;;;;;4.75;2.00;;;;;;;;;;5074557;28;20432;-76
2023/10/04 03:20:20;;;;;;;4.35;1.95;;;;;;;;;;5074564;28;20201;-75
2023/10/04 03:22:49;;;;;;;6.07;2.20;;;;;;;;;;5073812;28;20225;-75
2023/10/04 03:25:17;;;;;;;3.80;2.17;;;;;;;;;;5074383;28;20860;-75
2023/10/04 03:27:47;;;;;;;4.20;1.97;;;;;;;;;;5074022;28;20194;-75
2023/10/04 03:30:15;;;;;;;3.70;1.50;;;;;;;;;;5074047;28;20439;-75
2023/10/04 03:32:43;;;;;;;3.70;1.67;;;;;;;;;;5073924;28;20472;-74
2023/10/04 03:35:14;;;;;;;3.60;1.85;;;;;;;;;;5074272;28;20436;-74
2023/10/04 03:37:49;;;;;;;3.40;1.67;;;;;;;;;;5074027;28;20171;-75
2023/10/04 03:40:17;;;;;;;3.97;2.03;;;;;;;;;;5074154;28;20193;-75
2023/10/04 03:42:46;;;;;;;7.10;4.40;;;;;;;;;;5074054;28;20486;-74
2023/10/04 03:45:17;;;;;;;5.70;2.83;;;;;;;;;;5074120;28;20464;-75
2023/10/04 03:47:44;;;;;;;15.82;2.83;;;;;;;;;;5074080;28;20182;-74
2023/10/04 03:50:13;;;;;;;4.55;2.33;;;;;;;;;;5074005;28;20263;-74
2023/10/04 03:52:42;;;;;;;5.95;2.28;;;;;;;;;;5073264;28;20542;-75
2023/10/04 03:55:10;;;;;;;3.40;1.70;;;;;;;;;;5074097;28;20198;-75
2023/10/04 03:57:42;;;;;;;5.43;1.97;;;;;;;;;;5073437;28;20464;-74
2023/10/04 04:00:17;;;;;;;4.67;1.60;;;;;;;;;;5073315;28;20424;-74
2023/10/04 04:02:44;;;;;;;4.37;2.10;;;;;;;;;;5073546;28;20420;-74
2023/10/04 04:05:14;;;;;;;4.05;1.90;;;;;;;;;;5073868;28;20815;-75
2023/10/04 04:07:41;;;;;;;3.90;2.20;;;;;;;;;;5073391;28;20587;-74
2023/10/04 04:10:09;;;;;;;4.28;1.80;;;;;;;;;;5073406;28;20429;-74
2023/10/04 04:12:37;;;;;;;5.40;2.50;;;;;;;;;;5073199;28;20206;-75
2023/10/04 04:15:09;;;;;;;3.50;1.80;;;;;;;;;;5073631;28;20556;-75
2023/10/04 04:17:37;;;;;;;3.67;2.05;;;;;;;;;;5073481;28;21081;-74
2023/10/04 04:20:14;;;;;;;4.73;2.83;;;;;;;;;;5074070;28;20190;-74
2023/10/04 04:22:42;;;;;;;12.75;3.90;;;;;;;;;;5073477;28;20432;-75
2023/10/04 04:25:15;;;;;;;4.05;2.10;;;;;;;;;;5073190;28;20194;-75
2023/10/04 04:27:45;;;;;;;4.97;1.95;;;;;;;;;;5073694;28;20213;-75
2023/10/04 04:30:19;;;;;;;5.20;1.90;;;;;;;;;;5073288;28;20196;-74
2023/10/04 04:32:47;;;;;;;4.32;2.00;;;;;;;;;;5073436;28;20213;-74
2023/10/04 04:35:22;;;;;;;5.10;2.10;;;;;;;;;;5073588;28;20190;-74
2023/10/04 04:37:54;;;;;;;4.88;2.55;;;;;;;;;;5073197;28;20424;-74
2023/10/04 04:40:25;;;;;;;5.80;2.38;;;;;;;;;;5073228;28;20216;-74
2023/10/04 04:42:53;;;;;;;6.20;1.85;;;;;;;;;;5073157;28;20179;-74
2023/10/04 04:45:25;;;;;;;5.57;2.22;;;;;;;;;;5073425;28;20670;-74
2023/10/04 04:47:55;;;;;;;4.72;2.92;;;;;;;;;;5073362;28;20182;-74
2023/10/04 04:50:24;;;;;;;3.97;1.67;;;;;;;;;;5073144;28;20222;-74
2023/10/04 04:52:53;;;;;;;9.73;2.20;;;;;;;;;;5073068;28;20210;-74
2023/10/04 04:55:26;;;;;;;3.78;1.85;;;;;;;;;;5072797;28;20641;-74
2023/10/04 04:57:53;;;;;;;3.85;2.03;;;;;;;;;;5073101;28;20214;-74
2023/10/04 05:00:33;;;;;;;4.13;1.83;;;;;;;;;;5073300;28;20186;-74
2023/10/04 05:03:02;;;;;;;6.70;2.40;;;;;;;;;;5073523;28;20183;-74
2023/10/04 05:05:31;;;;;;;5.28;2.33;;;;;;;;;;5072988;28;20194;-74
2023/10/04 05:07:58;;;;;;;5.72;2.38;;;;;;;;;;5072416;28;20190;-74
2023/10/04 05:10:34;;;;;;;5.63;2.20;;;;;;;;;;5072861;28;20225;-74
2023/10/04 05:13:01;;;;;;;6.85;2.42;;;;;;;;;;5072793;28;20263;-74
2023/10/04 05:15:33;;;;;;;4.90;2.65;;;;;;;;;;5072771;28;20616;-74
2023/10/04 05:18:03;;;;;;;3.53;2.22;;;;;;;;;;5073270;28;20214;-74
2023/10/04 05:20:32;;;;;;;4.30;2.45;;;;;;;;;;5072413;28;20262;-75
2023/10/04 05:22:59;;;;;;;3.78;2.10;;;;;;;;;;5073131;28;20595;-74
2023/10/04 05:25:28;;;;;;;4.43;2.17;;;;;;;;;;5072628;28;20284;-74
2023/10/04 05:27:55;;;;;;;5.18;2.00;;;;;;;;;;5072540;28;20605;-74
2023/10/04 05:30:22;;;;;;;4.43;2.17;;;;;;;;;;5070051;28;20235;-74
2023/10/04 05:32:51;;;;;;;7.65;2.90;;;;;;;;;;5071819;28;20222;-74
2023/10/04 05:35:18;;;;;;;9.55;2.60;;;;;;;;;;5071896;28;20183;-74
2023/10/04 05:37:48;;;;;;;3.45;2.15;;;;;;;;;;5072179;28;20186;-75
2023/10/04 05:40:25;;;;;;;3.88;2.10;;;;;;;;;;5072131;28;20299;-74
2023/10/04 05:42:59;;;;;;;4.47;2.38;;;;;;;;;;5072231;28;20270;-74
2023/10/04 05:45:27;;;;;;;6.10;2.25;;;;;;;;;;5071676;28;20209;-74
2023/10/04 05:47:56;;;;;;;4.15;2.20;;;;;;;;;;5071588;28;20309;-74
2023/10/04 05:50:25;;;;;;;6.25;2.60;;;;;;;;;;5072268;28;20239;-75
2023/10/04 05:52:54;;;;;;;5.95;3.50;;;;;;;;;;5075575;28;20614;-75
2023/10/04 05:55:22;;;;;;;4.88;2.10;;;;;;;;;;5075511;28;20263;-74
2023/10/04 05:57:51;;;;;;;5.50;2.75;;;;;;;;;;5075625;28;20196;-74
2023/10/04 06:00:27;;;;;;;4.40;2.50;;;;;;;;;;5075045;28;20220;-74
2023/10/04 06:02:58;;;;;;;6.40;2.50;;;;;;;;;;5075544;28;20606;-74
2023/10/04 06:05:29;;;;;;;3.60;2.17;;;;;;;;;;5075356;28;20228;-75
2023/10/04 06:07:57;;;;;;;5.90;2.95;;;;;;;;;;5074409;28;20229;-74
2023/10/04 06:10:24;;;;;;;4.97;2.63;;;;;;;;;;5074885;28;20191;-74
2023/10/04 06:12:54;;;;;;;4.40;2.03;;;;;;;;;;5074670;28;20222;-74
2023/10/04 06:15:24;;;;;;;4.20;2.45;;;;;;;;;;5074581;28;20189;-74
2023/10/04 06:17:52;;;;;;;5.25;2.63;;;;;;;;;;5074297;28;20175;-74
2023/10/04 06:20:24;;;;;;;9.13;3.70;;;;;;;;;;5074793;28;20255;-74
2023/10/04 06:22:52;;;;;;;7.65;2.90;;;;;;;;;;5074695;28;20202;-75
2023/10/04 06:25:21;;;;;;;6.97;2.72;;;;;;;;;;5074442;28;20535;-75
2023/10/04 06:27:53;;;;;;;6.70;3.60;;;;;;;;;;5074954;28;20194;-75
2023/10/04 06:30:23;;;;;;;8.40;4.57;;;;;;;;;;5074812;28;20463;-74
2023/10/04 06:32:52;;;;;;;7.50;3.30;;;;;;;;;;5074841;28;20464;-74
2023/10/04 06:35:23;;;;;;;7.60;2.87;;;;;;;;;;5071513;28;20478;-74
2023/10/04 06:37:52;;;;;;;8.23;3.10;;;;;;;;;;5074357;28;20464;-74
2023/10/04 06:40:23;;;;;;;5.50;3.00;;;;;;;;;;5073855;28;20464;-75
2023/10/04 06:42:51;;;;;;;5.10;2.87;;;;;;;;;;5074398;28;20432;-75
2023/10/04 06:45:27;;;;;;;6.13;3.00;;;;;;;;;;5074247;28;20436;-75
2023/10/04 06:47:59;;;;;;;6.30;2.70;;;;;;;;;;5065253;28;20440;-75
2023/10/04 06:50:35;;;;;;;6.10;2.83;;;;;;;;;;5054116;28;20428;-75
2023/10/04 06:53:05;;;;;;;7.70;2.03;;;;;;;;;;5065811;28;20456;-75
2023/10/04 06:55:34;;;;;;;3.80;2.50;;;;;;;;;;5070497;28;20515;-75
2023/10/04 06:58:01;;;;;;;6.23;3.03;;;;;;;;;;5074508;28;20436;-75
2023/10/04 07:00:36;;;;;;;3.60;2.17;;;;;;;;;;5073650;28;20833;-75
2023/10/04 07:03:05;;;;;;;4.40;2.07;;;;;;;;;;5073832;28;20427;-75
2023/10/04 07:05:35;;;;;;;3.80;1.83;;;;;;;;;;5072752;28;20531;-75
2023/10/04 07:08:05;;;;;;;4.23;2.37;;;;;;;;;;5074202;28;20425;-75
2023/10/04 07:10:33;;;;;;;4.10;2.03;;;;;;;;;;5074265;28;20424;-75
2023/10/04 07:13:02;;;;;;;7.53;2.17;;;;;;;;;;5073709;28;20460;-75
2023/10/04 07:15:30;;;;;;;3.40;1.57;;;;;;;;;;5073589;28;20421;-76
2023/10/04 07:18:00;;;;;;;3.60;1.60;;;;;;;;;;5073818;28;20563;-75
2023/10/04 07:20:27;;;;;;;4.27;2.30;;;;;;;;;;5073905;28;20443;-75
2023/10/04 07:22:58;;;;;;;3.97;1.90;;;;;;;;;;5073792;28;20432;-76
2023/10/04 07:25:27;;;;;;;5.10;2.30;;;;;;;;;;5073557;28;20428;-75
2023/10/04 07:27:55;;;;;;;4.30;2.20;;;;;;;;;;5073783;28;20443;-76
2023/10/04 07:30:24;;;;;;;3.70;2.10;;;;;;;;;;5073779;28;20490;-75
2023/10/04 07:32:51;;;;;;;3.80;2.20;;;;;;;;;;5073098;28;20520;-75
2023/10/04 07:35:20;;;;;;;5.47;2.70;;;;;;;;;;5073147;28;20444;-75
2023/10/04 07:37:48;;;;;;;5.73;2.50;;;;;;;;;;5073206;28;20469;-76
2023/10/04 07:40:16;;;;;;;4.53;2.23;;;;;;;;;;5073498;28;20454;-76
2023/10/04 07:42:46;;;;;;;6.33;2.23;;;;;;;;;;5073277;28;20437;-76
2023/10/04 07:45:14;;;;;;;3.80;1.90;;;;;;;;;;5073382;28;20475;-75
2023/10/04 07:47:42;;;;;;;3.70;2.20;;;;;;;;;;5073432;28;20447;-76
2023/10/04 07:50:11;;;;;;;3.20;1.57;;;;;;;;;;5073206;28;20804;-76
2023/10/04 07:52:38;;;;;;;4.27;2.10;;;;;;;;;;5072974;28;20436;-76
2023/10/04 07:55:14;;;;;;;4.37;2.10;;;;;;;;;;5073261;28;20885;-76
2023/10/04 07:57:42;;;;;;;6.80;2.03;;;;;;;;;;5073092;28;20422;-75
2023/10/04 08:00:14;;;;;;;4.50;2.27;;;;;;;;;;5072831;28;20926;-76
2023/10/04 08:02:46;;;;;;;6.90;2.33;;;;;;;;;;5073439;28;20424;-75
2023/10/04 08:05:17;;;;;;;7.23;2.60;;;;;;;;;;5072712;28;20918;-75
2023/10/04 08:07:44;;;;;;;5.40;2.20;;;;;;;;;;5073244;28;20517;-75
2023/10/04 08:10:12;;;;;;;4.30;2.47;;;;;;;;;;5072944;28;20858;-76
2023/10/04 08:12:40;;;;;;;4.20;2.00;;;;;;;;;;5072408;28;20433;-76
2023/10/04 08:15:07;;;;;;;3.60;2.30;;;;;;;;;;5072103;28;20512;-76
2023/10/04 08:17:36;;;;;;;6.60;2.27;;;;;;;;;;5072629;28;20523;-76
2023/10/04 08:20:04;;;;;;;4.03;2.20;;;;;;;;;;5072773;28;20459;-76
2023/10/04 08:22:32;;;;;;;4.43;2.33;;;;;;;;;;5072586;28;20528;-76
2023/10/04 08:24:59;;;;;;;5.13;2.70;;;;;;;;;;5072732;28;20530;-76
2023/10/04 08:27:26;;;;;;;5.23;1.97;;;;;;;;;;5072961;28;20842;-76
2023/10/04 08:29:54;;;;;;;5.67;2.50;;;;;;;;;;5072707;28;20519;-76
2023/10/04 08:32:22;;;;;;;3.07;1.60;;;;;;;;;;5072760;28;20805;-76
2023/10/04 08:34:51;;;;;;;4.70;2.10;;;;;;;;;;5072329;28;20472;-76
2023/10/04 08:37:19;;;;;;;4.60;2.10;;;;;;;;;;5072596;28;20432;-76
2023/10/04 08:39:47;;;;;;;3.30;1.93;;;;;;;;;;5072268;28;20447;-76
2023/10/04 08:42:14;;;;;;;3.90;2.17;;;;;;;;;;5072291;28;20984;-76
2023/10/04 08:44:41;;;;;;;3.17;1.83;;;;;;;;;;5072552;28;20428;-76
2023/10/04 08:47:09;;;;;;;4.13;1.97;;;;;;;;;;5072539;28;20433;-76
2023/10/04 08:49:41;;;;;;;3.80;2.00;;;;;;;;;;5072565;28;20436;-76
2023/10/04 08:52:15;;;;;;;4.10;2.30;;;;;;;;;;5072648;28;20432;-76
2023/10/04 08:54:47;;;;;;;3.90;1.80;;;;;;;;;;5072426;28;20828;-76
2023/10/04 08:57:19;;;;;;;3.40;1.63;;;;;;;;;;5072607;28;20762;-76
2023/10/04 08:59:47;;;;;;;3.70;1.93;;;;;;;;;;5072259;28;20430;-76
2023/10/04 09:02:15;;;;;;;3.80;1.90;;;;;;;;;;5072141;28;20913;-76
2023/10/04 09:04:43;;;;;;;5.47;2.60;;;;;;;;;;5072542;28;20440;-76
2023/10/04 09:07:12;;;;;;;4.07;2.10;;;;;;;;;;5072496;28;20495;-76
2023/10/04 09:09:39;;;;;;;4.07;2.30;;;;;;;;;;5070153;28;20486;-75
2023/10/04 09:12:07;;;;;;;4.77;2.10;;;;;;;;;;5072039;28;20440;-76
2023/10/04 09:14:36;;;;;;;5.13;3.10;;;;;;;;;;5071750;28;20476;-76
2023/10/04 09:17:06;;;;;;;6.20;1.97;;;;;;;;;;5071671;28;20447;-76
2023/10/04 09:19:33;;;;;;;4.10;2.23;;;;;;;;;;5071922;28;20953;-76
2023/10/04 09:22:05;;;;;;;4.57;2.80;;;;;;;;;;5072230;28;20502;-76
2023/10/04 09:24:37;;;;;;;3.30;2.13;;;;;;;;;;5072804;28;20508;-76
2023/10/04 09:27:04;;;;;;;3.73;2.60;;;;;;;;;;5076198;28;20482;-76
2023/10/04 09:29:33;;;;;;;4.53;2.90;;;;;;;;;;5075585;28;20805;-76
2023/10/04 09:32:01;;;;;;;4.70;2.47;;;;;;;;;;5075534;28;20432;-76
2023/10/04 09:34:29;;;;;;;4.33;2.20;;;;;;;;;;5075479;28;21001;-76
2023/10/04 09:36:56;;;;;;;4.00;2.20;;;;;;;;;;5075763;28;20468;-76
2023/10/04 09:39:31;;;;;;;4.27;2.30;;;;;;;;;;5075416;28;20439;-76
2023/10/04 09:42:02;;;;;;;4.47;2.63;;;;;;;;;;5075701;28;20514;-76
2023/10/04 09:44:30;;;;;;;3.10;2.03;;;;;;;;;;5075699;28;20959;-73
2023/10/04 09:46:59;;;;;;;4.20;2.90;;;;;;;;;;5075529;28;20988;-74
2023/10/04 09:49:31;;;;;;;3.80;2.00;;;;;;;;;;5075416;28;20463;-74
2023/10/04 09:52:00;;;;;;;3.93;2.20;;;;;;;;;;5076022;28;20812;-74
2023/10/04 09:54:28;;;;;;;4.10;2.23;;;;;;;;;;5075483;28;20797;-73
2023/10/04 09:56:56;;;;;;;4.40;2.20;;;;;;;;;;5075292;28;20432;-74
2023/10/04 09:59:25;;;;;;;3.20;2.00;;;;;;;;;;5075517;28;20829;-73
2023/10/04 10:01:56;;;;;;;4.23;2.60;;;;;;;;;;5075319;28;20456;-74
2023/10/04 10:04:25;;;;;;;4.43;3.03;;;;;;;;;;5075462;28;20466;-73
2023/10/04 10:06:57;;;;;;;4.30;2.43;;;;;;;;;;5075296;28;20424;-73
2023/10/04 10:09:25;;;;;;;5.30;2.20;;;;;;;;;;5071292;28;20424;-74
2023/10/04 10:11:53;;;;;;;3.53;2.30;;;;;;;;;;5075061;28;20515;-74
2023/10/04 10:14:23;;;;;;;4.17;2.57;;;;;;;;;;5074550;28;21067;-73
2023/10/04 10:16:54;;;;;;;4.80;2.43;;;;;;;;;;5074893;28;20486;-74
2023/10/04 10:19:22;;;;;;;4.27;2.50;;;;;;;;;;5074975;28;20510;-74
2023/10/04 10:22:15;;;;;;;7.50;3.20;;;;;;;;;;5074709;28;20444;-74
2023/10/04 10:24:46;;;;;;;4.20;2.57;;;;;;;;;;5056289;28;20504;-74
2023/10/04 10:27:15;;;;;;;5.00;2.30;;;;;;;;;;5074531;28;20464;-73
2023/10/04 10:29:43;;;;;;;6.57;2.87;;;;;;;;;;5074703;28;20495;-74
2023/10/04 10:32:20;;;;;;;4.80;2.40;;;;;;;;;;5074441;28;20437;-75
2023/10/04 10:34:49;;;;;;;6.30;2.80;;;;;;;;;;5074790;28;20463;-76
2023/10/04 10:37:18;;;;;;;3.40;2.17;;;;;;;;;;5073775;28;20439;-76
2023/10/04 10:39:46;;;;;;;4.13;2.03;;;;;;;;;;5074924;28;20520;-76
2023/10/04 10:42:14;;;;;;;4.20;2.13;;;;;;;;;;5074649;28;20485;-76
2023/10/04 10:44:41;;;;;;;3.70;2.27;;;;;;;;;;5074008;28;20476;-76
2023/10/04 10:47:14;;;;;;;3.70;2.20;;;;;;;;;;5074286;28;20433;-76
2023/10/04 10:50:02;;;;;;;4.27;2.20;;;;;;;;;;5074570;28;20470;-76
2023/10/04 10:52:41;;;;;;;6.00;2.77;;;;;;;;;;5074665;28;20431;-76
2023/10/04 10:55:14;;;;;;;3.80;2.20;;;;;;;;;;5074480;28;20427;-77
2023/10/04 10:57:44;;;;;;;3.40;2.30;;;;;;;;;;5074805;28;20430;-77
2023/10/04 11:00:18;;;;;;;4.90;2.47;;;;;;;;;;5072675;28;21019;-77
2023/10/04 11:02:47;;;;;;;4.60;2.20;;;;;;;;;;5054431;28;20777;-77
2023/10/04 11:05:16;;;;;;;3.73;2.00;;;;;;;;;;5054091;28;20469;-76
2023/10/04 11:07:46;;;;;;;4.80;2.40;;;;;;;;;;5066862;28;20845;-77
2023/10/04 11:10:16;;;;;;;5.53;3.20;;;;;;;;;;5073343;28;20519;-77
2023/10/04 11:12:44;;;;;;;4.50;2.90;;;;;;;;;;5069038;28;20429;-74
2023/10/04 11:15:20;;;;;;;3.93;2.43;;;;;;;;;;5053020;28;20440;-74
2023/10/04 11:17:47;;;;;;;4.27;2.70;;;;;;;;;;5054018;28;20429;-74
2023/10/04 11:20:17;;;;;;;3.37;2.30;;;;;;;;;;5053496;28;20437;-74
2023/10/04 11:22:46;;;;;;;3.77;2.10;;;;;;;;;;5062630;28;20807;-75
2023/10/04 11:25:14;;;;;;;4.00;1.93;;;;;;;;;;5072407;28;20537;-74
2023/10/04 11:27:43;;;;;;;3.60;2.60;;;;;;;;;;5071217;28;20519;-74
2023/10/04 11:30:11;;;;;;;3.80;2.00;;;;;;;;;;5073571;28;20437;-74
2023/10/04 11:32:40;;;;;;;3.53;1.90;;;;;;;;;;5072393;28;20440;-74
2023/10/04 11:35:08;;;;;;;4.43;2.07;;;;;;;;;;5065708;28;20441;-74
2023/10/04 11:37:40;;;;;;;4.03;2.40;;;;;;;;;;5053160;28;20529;-74
2023/10/04 11:40:13;;;;;;;4.73;2.43;;;;;;;;;;5071869;28;20477;-76
2023/10/04 11:42:41;;;;;;;3.53;2.03;;;;;;;;;;5073167;28;20436;-76
2023/10/04 11:45:18;;;;;;;5.20;2.07;;;;;;;;;;5071903;28;20472;-77
2023/10/04 11:47:59;;;;;;;5.53;2.10;;;;;;;;;;5073295;28;20467;-77
2023/10/04 11:50:27;;;;;;;3.40;1.80;;;;;;;;;;5070347;28;20429;-77
2023/10/04 11:52:56;;;;;;;3.80;1.90;;;;;;;;;;5072491;28;20488;-77
2023/10/04 11:55:36;;;;;;;4.43;2.13;;;;;;;;;;5059934;28;20805;-77
2023/10/04 11:58:10;;;;;;;4.40;2.00;;;;;;;;;;5072207;28;20435;-76
2023/10/04 12:00:38;;;;;;;3.40;2.10;;;;;;;;;;5072005;28;20420;-76
2023/10/04 12:03:06;;;;;;;5.53;2.40;;;;;;;;;;5071720;28;20922;-76
2023/10/04 12:05:35;;;;;;;3.50;1.93;;;;;;;;;;5072719;28;20484;-76
2023/10/04 12:08:02;;;;;;;3.87;2.20;;;;;;;;;;5071412;28;20862;-76
2023/10/04 12:10:31;;;;;;;3.70;1.77;;;;;;;;;;5071108;28;20452;-76
2023/10/04 12:12:58;;;;;;;4.73;1.90;;;;;;;;;;5072104;28;20949;-76
2023/10/04 12:15:26;;;;;;;3.47;2.00;;;;;;;;;;5071685;28;20441;-76
2023/10/04 12:17:54;;;;;;;4.17;2.60;;;;;;;;;;5071605;28;20987;-76
2023/10/04 12:20:24;;;;;;;5.80;2.80;;;;;;;;;;5072089;28;20439;-76
2023/10/04 12:22:51;;;;;;;3.63;2.00;;;;;;;;;;5071712;28;20476;-76
2023/10/04 12:25:21;;;;;;;5.80;2.17;;;;;;;;;;5072081;28;20471;-76
2023/10/04 12:27:51;;;;;;;8.40;2.17;;;;;;;;;;5072301;28;20505;-76
2023/10/04 12:30:20;;;;;;;3.57;1.80;;;;;;;;;;5072477;28;20442;-76
2023/10/04 12:32:48;;;;;;;4.40;2.40;;;;;;;;;;5072757;28;20440;-76
2023/10/04 12:35:15;;;;;;;6.77;2.67;;;;;;;;;;5072094;28;20845;-76
2023/10/04 12:37:43;;;;;;;4.50;2.17;;;;;;;;;;5072860;28;20785;-76
2023/10/04 12:40:17;;;;;;;3.50;1.80;;;;;;;;;;5071502;28;20440;-76
2023/10/04 12:42:45;;;;;;;4.33;2.10;;;;;;;;;;5072440;28;20460;-76
2023/10/04 12:45:15;;;;;;;4.80;2.30;;;;;;;;;;5072331;28;20526;-76
2023/10/04 12:47:42;;;;;;;4.50;1.93;;;;;;;;;;5072693;28;20515;-76
2023/10/04 12:50:14;;;;;;;3.40;2.10;;;;;;;;;;5071310;28;20429;-76
2023/10/04 12:52:41;;;;;;;7.00;2.53;;;;;;;;;;5071986;28;20531;-76
2023/10/04 12:55:09;;;;;;;4.97;2.37;;;;;;;;;;5071626;28;20528;-76
2023/10/04 12:57:39;;;;;;;4.83;2.40;;;;;;;;;;5072284;28;20836;-76
2023/10/04 13:00:14;;;;;;;3.70;2.20;;;;;;;;;;5073121;28;20457;-76
2023/10/04 13:02:43;;;;;;;4.63;2.47;;;;;;;;;;5075258;28;20428;-76
2023/10/04 13:05:13;;;;;;;4.70;2.57;;;;;;;;;;5076443;28;20560;-76
2023/10/04 13:07:41;;;;;;;3.67;1.90;;;;;;;;;;5073344;28;20498;-76
2023/10/04 13:10:09;;;;;;;5.20;2.03;;;;;;;;;;5075653;28;20830;-76
2023/10/04 13:12:40;;;;;;;4.60;2.30;;;;;;;;;;5076503;28;20433;-76
2023/10/04 13:15:14;;;;;;;7.80;2.17;;;;;;;;;;5075606;28;20467;-76
2023/10/04 13:17:43;;;;;;;5.70;2.20;;;;;;;;;;5076548;28;20442;-76
2023/10/04 13:20:17;;;;;;;5.20;2.30;;;;;;;;;;5076067;28;20533;-76
2023/10/04 13:22:44;;;;;;;3.80;2.00;;;;;;;;;;5076248;28;20430;-76
2023/10/04 13:25:13;;;;;;;5.90;2.60;;;;;;;;;;5075720;28;20480;-76
2023/10/04 13:27:41;;;;;;;4.20;2.40;;;;;;;;;;5076092;28;20429;-75
2023/10/04 13:30:09;;;;;;;3.43;1.97;;;;;;;;;;5075903;28;20436;-76
2023/10/04 13:32:37;;;;;;;6.57;1.80;;;;;;;;;;5075960;28;20444;-75
2023/10/04 13:35:07;;;;;;;10.30;3.30;;;;;;;;;;5075984;28;20442;-76
2023/10/04 13:37:34;;;;;;;3.40;1.97;;;;;;;;;;5075954;28;20464;-75
2023/10/04 13:40:08;;;;;;;3.47;1.60;;;;;;;;;;5075872;28;20440;-76
2023/10/04 13:42:36;;;;;;;4.07;2.03;;;;;;;;;;5075478;28;20520;-75
2023/10/04 13:45:05;;;;;;;4.00;2.10;;;;;;;;;;5075276;28;20513;-76
2023/10/04 13:47:33;;;;;;;5.20;1.90;;;;;;;;;;5074940;28;20857;-75
2023/10/04 13:50:02;;;;;;;3.07;1.53;;;;;;;;;;5075268;28;21000;-75
2023/10/04 13:52:30;;;;;;;5.03;2.50;;;;;;;;;;5075573;28;20437;-75
2023/10/04 13:54:58;;;;;;;4.70;2.40;;;;;;;;;;5075214;28;20432;-75
2023/10/04 13:57:25;;;;;;;4.20;2.13;;;;;;;;;;5075554;28;20486;-75
2023/10/04 13:59:53;;;;;;;4.37;1.63;;;;;;;;;;5074600;28;20523;-75
2023/10/04 14:02:20;;;;;;;5.27;1.90;;;;;;;;;;5074737;28;20843;-75
2023/10/04 14:04:47;;;;;;;3.77;1.90;;;;;;;;;;5075091;28;20444;-75
2023/10/04 14:07:16;;;;;;;7.00;2.33;;;;;;;;;;5075022;28;20437;-75
2023/10/04 14:09:45;;;;;;;3.80;1.97;;;;;;;;;;5074212;28;20494;-75
2023/10/04 14:12:12;;;;;;;5.00;2.17;;;;;;;;;;5074103;28;20474;-75
2023/10/04 14:14:39;;;;;;;3.50;1.60;;;;;;;;;;5074741;28;20471;-75
2023/10/04 14:17:08;;;;;;;4.50;2.13;;;;;;;;;;5075190;28;20437;-76
2023/10/04 14:19:37;;;;;;;4.63;1.67;;;;;;;;;;5075327;28;20486;-75
2023/10/04 14:22:06;;;;;;;3.60;1.50;;;;;;;;;;5074701;28;20472;-76
2023/10/04 14:24:33;;;;;;;6.40;2.30;;;;;;;;;;5075003;28;20443;-76
2023/10/04 14:27:02;;;;;;;4.30;2.03;;;;;;;;;;5074046;28;20561;-75
2023/10/04 14:29:30;;;;;;;3.57;1.77;;;;;;;;;;5074696;28;20470;-75
2023/10/04 14:31:57;;;;;;;4.40;1.90;;;;;;;;;;5074519;28;20436;-76
2023/10/04 14:34:25;;;;;;;5.53;2.10;;;;;;;;;;5074834;28;20436;-75
2023/10/04 14:36:53;;;;;;;7.83;2.20;;;;;;;;;;5057055;28;20437;-76
2023/10/04 14:39:23;;;;;;;4.40;2.10;;;;;;;;;;5054789;28;20450;-75
2023/10/04 14:41:50;;;;;;;5.80;2.47;;;;;;;;;;5055380;28;20908;-75
2023/10/04 14:44:19;;;;;;;7.57;4.00;;;;;;;;;;5073901;28;20478;-75
2023/10/04 14:46:46;;;;;;;6.30;2.23;;;;;;;;;;5074352;28;20512;-75
2023/10/04 14:49:15;;;;;;;4.30;2.20;;;;;;;;;;5074557;28;20437;-75
2023/10/04 14:51:42;;;;;;;6.70;2.00;;;;;;;;;;5074663;28;20437;-75
2023/10/04 14:54:10;;;;;;;9.10;1.67;;;;;;;;;;5074304;28;20913;-75
2023/10/04 14:56:37;;;;;;;4.50;2.00;;;;;;;;;;5074195;28;20796;-75